Current Weather

Dodge County

Juneau, Wisconsin (KUNU)

Report from: Monday, June 17, 2024 5:35 AM CDT
Current time: Monday, June 17, 2024 6:06 AM CDT

Nearby weather – Weather history – Daily summaries
Weather forecast

Temperature20.7°C (69.3°F)
Dew point19.7°C (67.5°F)
Winds 4 kts (2.1 m/s, 4.6 mph) South (180°)
Visibility10 mi. (16.1 km)
Clouds Sky clear
Altimeter29.86 in.Hg (1011 mB)
Relative humidity94 %
Density altitude1,047 ft. (319 m)
Remarks Fully automated report
Automated weather observing station with precipitation discriminator
Flight conditions Visual Meteorological Conditions
Raw dataKUNU 171035Z AUTO 18004KT 10SM CLR 21/20 A2986 RMK AO2 T02070197
An error has occurred. This application may no longer respond until reloaded. Reload 🗙